Time;durP1;ratioP1;P1;durP2;ratioP2;P2;SDS_P1;SDS_P2;PMS_P1;PMS_P2;Temp;Humidity;BMP_temperature;BMP_pressure;BME280_temperature;BME280_humidity;BME280_pressure;Samples;Min_cycle;Max_cycle;Signal;HPM_P1;HPM_P2
2021/05/17 00:02:21;;;;;;;1.00;0.80;;;24.50;59.70;;;;;;5076411;28;20449;-88
2021/05/17 00:04:48;;;;;;;1.10;0.80;;;24.50;59.70;;;;;;5076727;28;20568;-89
2021/05/17 00:07:15;;;;;;;1.20;0.90;;;24.50;59.70;;;;;;5078298;28;20513;-88
2021/05/17 00:09:42;;;;;;;1.37;1.10;;;24.50;59.70;;;;;;5076739;28;20461;-88
2021/05/17 00:12:10;;;;;;;1.20;1.00;;;24.50;59.70;;;;;;5077114;28;20781;-87
2021/05/17 00:14:37;;;;;;;1.00;0.90;;;24.50;59.70;;;;;;5076268;28;20440;-89
2021/05/17 00:17:06;;;;;;;1.23;1.03;;;24.50;59.70;;;;;;5076333;28;20485;-88
2021/05/17 00:19:33;;;;;;;1.30;1.00;;;24.50;59.80;;;;;;5075925;28;20536;-88
2021/05/17 00:22:00;;;;;;;1.30;0.97;;;24.50;59.80;;;;;;5076187;28;20437;-88
2021/05/17 00:24:30;;;;;;;1.10;0.80;;;24.50;59.70;;;;;;5074944;28;20477;-89
2021/05/17 00:26:57;;;;;;;1.50;0.80;;;24.50;59.70;;;;;;5076328;28;20450;-89
2021/05/17 00:29:24;;;;;;;1.20;0.90;;;24.50;59.80;;;;;;5076125;28;20537;-88
2021/05/17 00:31:50;;;;;;;1.00;0.90;;;24.50;59.70;;;;;;5076472;28;20450;-88
2021/05/17 00:34:18;;;;;;;1.10;0.80;;;24.50;59.80;;;;;;5075801;28;20457;-88
2021/05/17 00:36:45;;;;;;;0.90;0.67;;;24.50;59.80;;;;;;5075384;28;20445;-89
2021/05/17 00:39:12;;;;;;;1.00;0.80;;;24.50;59.80;;;;;;5075799;28;20490;-89
2021/05/17 00:41:40;;;;;;;1.43;0.90;;;24.50;59.70;;;;;;5075821;28;20441;-89
2021/05/17 00:44:09;;;;;;;1.10;0.90;;;24.50;59.80;;;;;;5075461;28;21037;-88
2021/05/17 00:46:37;;;;;;;1.33;0.90;;;24.50;59.70;;;;;;5075902;28;20441;-88
2021/05/17 00:49:05;;;;;;;1.10;0.80;;;24.50;59.80;;;;;;5075607;28;20445;-88
2021/05/17 00:51:32;;;;;;;1.33;1.00;;;24.50;60.50;;;;;;5075946;28;20796;-88
2021/05/17 00:54:00;;;;;;;1.00;0.70;;;24.50;59.80;;;;;;5075048;28;20458;-89
2021/05/17 00:56:26;;;;;;;1.20;0.80;;;24.50;59.80;;;;;;5075959;28;20503;-88
2021/05/17 00:58:53;;;;;;;0.90;0.70;;;24.50;59.80;;;;;;5075635;28;20449;-88
2021/05/17 01:01:20;;;;;;;1.07;0.80;;;24.50;59.80;;;;;;5075437;28;20959;-88
2021/05/17 01:03:46;;;;;;;1.00;0.70;;;24.40;59.70;;;;;;5075757;28;20445;-88
2021/05/17 01:06:45;;;;;;;1.00;0.80;;;24.40;59.80;;;;;;5075625;28;20457;-89
2021/05/17 01:09:12;;;;;;;1.00;0.73;;;24.40;59.70;;;;;;5090308;28;20464;-89
2021/05/17 01:11:39;;;;;;;0.90;0.70;;;24.40;59.80;;;;;;5088101;28;20438;-88
2021/05/17 01:14:08;;;;;;;1.20;0.80;;;24.40;59.80;;;;;;5088308;28;20500;-88
2021/05/17 01:16:38;;;;;;;1.00;0.80;;;24.40;59.80;;;;;;5080418;28;20924;-88
2021/05/17 01:19:06;;;;;;;1.00;0.80;;;24.40;59.80;;;;;;5079898;28;20430;-88
2021/05/17 01:21:37;;;;;;;1.20;0.70;;;24.40;59.80;;;;;;5077954;28;20568;-88
2021/05/17 01:24:06;;;;;;;1.00;0.70;;;24.40;59.80;;;;;;5078267;28;20482;-89
2021/05/17 01:26:34;;;;;;;1.00;0.70;;;24.40;59.80;;;;;;5078297;28;20452;-89
2021/05/17 01:29:04;;;;;;;1.10;0.93;;;24.40;59.80;;;;;;5078148;28;20428;-89
2021/05/17 01:31:31;;;;;;;1.30;0.90;;;24.40;59.80;;;;;;5078098;28;20445;-89
2021/05/17 01:33:58;;;;;;;1.43;0.87;;;24.40;59.80;;;;;;5077024;28;20448;-90
2021/05/17 01:36:26;;;;;;;1.20;0.90;;;24.40;59.80;;;;;;5081234;28;20452;-89
2021/05/17 01:38:55;;;;;;;1.10;0.90;;;24.40;59.90;;;;;;5081563;28;20461;-89
2021/05/17 01:41:26;;;;;;;1.10;0.80;;;24.40;59.80;;;;;;5081556;28;20486;-89
2021/05/17 01:43:55;;;;;;;1.13;0.87;;;24.50;59.90;;;;;;5081517;28;20504;-89
2021/05/17 01:46:24;;;;;;;0.90;0.70;;;24.40;59.80;;;;;;5081168;28;20432;-88
2021/05/17 01:48:52;;;;;;;1.03;0.90;;;24.40;59.90;;;;;;5062048;28;20516;-89
2021/05/17 01:51:19;;;;;;;1.10;0.80;;;24.40;59.90;;;;;;5080489;28;20448;-89
2021/05/17 01:53:48;;;;;;;1.00;0.80;;;24.40;59.90;;;;;;5081426;28;20539;-88
2021/05/17 01:56:15;;;;;;;1.07;0.93;;;24.40;59.90;;;;;;5082331;28;20450;-89
2021/05/17 01:58:43;;;;;;;1.10;0.90;;;24.50;60.80;;;;;;5081498;28;20502;-89
2021/05/17 02:01:12;;;;;;;1.00;0.90;;;24.40;59.90;;;;;;5076987;28;20432;-89
2021/05/17 02:03:41;;;;;;;1.00;0.90;;;24.40;59.90;;;;;;5076402;28;20448;-89
2021/05/17 02:06:08;;;;;;;1.10;0.90;;;24.40;59.90;;;;;;5076144;28;20484;-89
2021/05/17 02:08:40;;;;;;;1.30;1.20;;;24.40;59.90;;;;;;5075920;28;20986;-89
2021/05/17 02:11:10;;;;;;;1.20;1.10;;;24.40;59.90;;;;;;5076216;28;20480;-89
2021/05/17 02:13:38;;;;;;;1.20;1.00;;;24.40;59.90;;;;;;5076818;28;20450;-89
2021/05/17 02:16:07;;;;;;;1.20;1.10;;;24.40;60.00;;;;;;5076078;28;20503;-89
2021/05/17 02:18:37;;;;;;;1.10;1.00;;;24.40;59.90;;;;;;5076371;28;20449;-89
2021/05/17 02:21:04;;;;;;;1.40;1.00;;;24.30;59.90;;;;;;5076495;28;20528;-89
2021/05/17 02:23:31;;;;;;;1.30;1.10;;;24.30;59.90;;;;;;5075846;28;20462;-89
2021/05/17 02:25:59;;;;;;;1.20;1.10;;;24.30;59.90;;;;;;5076231;28;20870;-89
2021/05/17 02:28:26;;;;;;;1.20;1.00;;;24.30;59.90;;;;;;5075803;28;20449;-89
2021/05/17 02:30:53;;;;;;;1.43;1.10;;;24.30;59.90;;;;;;5075640;28;20494;-89
2021/05/17 02:33:21;;;;;;;1.00;0.80;;;24.30;59.90;;;;;;5076004;28;20517;-89
2021/05/17 02:35:48;;;;;;;1.10;0.90;;;24.30;59.90;;;;;;5075825;28;20449;-89
2021/05/17 02:38:14;;;;;;;1.37;1.00;;;24.30;59.90;;;;;;5075643;28;21004;-89
2021/05/17 02:40:41;;;;;;;1.10;0.80;;;24.30;59.90;;;;;;5075474;28;20462;-89
2021/05/17 02:43:09;;;;;;;1.00;0.80;;;24.30;60.00;;;;;;5075505;28;20458;-89
2021/05/17 02:45:37;;;;;;;1.00;0.80;;;24.30;59.90;;;;;;5075077;28;20581;-88
2021/05/17 02:48:05;;;;;;;1.83;0.80;;;24.30;60.00;;;;;;5075780;28;20503;-89
2021/05/17 02:50:35;;;;;;;1.03;0.80;;;24.30;60.00;;;;;;5075560;28;20477;-89
2021/05/17 02:53:23;;;;;;;1.03;0.90;;;24.30;60.00;;;;;;5075554;28;20434;-89
2021/05/17 02:55:51;;;;;;;1.00;0.70;;;24.30;60.00;;;;;;5075340;28;20441;-89
2021/05/17 02:58:18;;;;;;;1.40;0.80;;;24.40;60.00;;;;;;5075160;28;20451;-89
2021/05/17 03:00:50;;;;;;;1.10;0.90;;;24.30;60.00;;;;;;5075249;28;20449;-89
2021/05/17 03:03:17;;;;;;;1.00;0.83;;;24.30;60.00;;;;;;5075153;28;20431;-89
2021/05/17 03:05:45;;;;;;;1.10;1.00;;;24.30;60.00;;;;;;5075175;28;20504;-89
2021/05/17 03:08:13;;;;;;;1.00;0.80;;;24.30;60.00;;;;;;5075351;28;20992;-89
2021/05/17 03:10:42;;;;;;;1.10;0.80;;;24.30;60.00;;;;;;5074690;28;20471;-89
2021/05/17 03:13:12;;;;;;;1.20;0.80;;;24.30;60.00;;;;;;5074783;28;20482;-89
2021/05/17 03:15:40;;;;;;;1.20;0.87;;;24.30;60.00;;;;;;5074695;28;20499;-89
2021/05/17 03:18:06;;;;;;;1.10;0.80;;;24.40;60.10;;;;;;5075028;28;20477;-89
2021/05/17 03:20:34;;;;;;;1.07;0.87;;;24.30;60.00;;;;;;5074830;28;20444;-89
2021/05/17 03:23:01;;;;;;;1.10;0.70;;;24.30;60.00;;;;;;5075019;28;20439;-89
2021/05/17 03:25:32;;;;;;;1.00;0.70;;;24.40;60.00;;;;;;5074203;28;20843;-89
2021/05/17 03:27:58;;;;;;;0.90;0.70;;;24.20;59.90;;;;;;5074882;28;20440;-89
2021/05/17 03:30:26;;;;;;;1.00;0.80;;;24.20;59.90;;;;;;5074616;28;20440;-89
2021/05/17 03:32:53;;;;;;;0.90;0.80;;;24.20;59.90;;;;;;5074680;28;20440;-89
2021/05/17 03:35:19;;;;;;;1.07;0.70;;;24.20;59.90;;;;;;5074760;28;20453;-89
2021/05/17 03:37:47;;;;;;;1.10;0.93;;;24.20;59.90;;;;;;5074574;28;20443;-89
2021/05/17 03:40:15;;;;;;;1.27;0.93;;;24.30;60.10;;;;;;5074413;28;20546;-89
2021/05/17 03:42:41;;;;;;;1.00;0.70;;;24.20;60.00;;;;;;5074656;28;20449;-89
2021/05/17 03:45:10;;;;;;;1.10;0.90;;;24.20;60.00;;;;;;5074169;28;20485;-89
2021/05/17 03:47:37;;;;;;;1.00;0.73;;;24.20;60.00;;;;;;5088205;28;20502;-89
2021/05/17 03:50:06;;;;;;;1.20;0.97;;;24.20;60.00;;;;;;5080237;28;20437;-89
2021/05/17 03:52:33;;;;;;;1.27;0.90;;;24.20;60.00;;;;;;5074071;28;20447;-89
2021/05/17 03:55:00;;;;;;;1.00;0.70;;;24.20;60.00;;;;;;5074713;28;20578;-89
2021/05/17 03:57:26;;;;;;;1.00;0.70;;;24.20;60.00;;;;;;5073649;28;20442;-89
2021/05/17 03:59:52;;;;;;;1.10;0.80;;;24.20;60.00;;;;;;5073483;28;20931;-89
2021/05/17 04:02:22;;;;;;;1.00;0.70;;;24.20;60.00;;;;;;5074320;28;20449;-89
2021/05/17 04:04:56;;;;;;;1.00;0.70;;;24.20;60.00;;;;;;5074027;28;20879;-89
2021/05/17 04:07:40;;;;;;;1.00;0.70;;;24.20;60.00;;;;;;5073755;28;20792;-89
2021/05/17 04:15:35;;;;;;;1.10;1.00;;;24.20;60.10;;;;;;5069991;28;20917;-89
2021/05/17 04:18:01;;;;;;;1.00;0.80;;;24.20;60.10;;;;;;5074685;28;20445;-89
2021/05/17 04:20:29;;;;;;;1.10;0.90;;;24.20;60.10;;;;;;5073916;28;20432;-89
2021/05/17 04:22:55;;;;;;;1.03;0.90;;;24.20;61.00;;;;;;5073938;28;20792;-89
2021/05/17 04:25:22;;;;;;;1.00;0.90;;;24.20;60.10;;;;;;5073388;28;20501;-89
2021/05/17 04:27:48;;;;;;;1.17;0.90;;;24.20;60.10;;;;;;5073901;28;20448;-89
2021/05/17 04:30:15;;;;;;;1.00;0.80;;;24.20;60.10;;;;;;5073787;28;20543;-89
2021/05/17 04:32:41;;;;;;;1.07;0.80;;;24.20;60.20;;;;;;5073567;28;20442;-89
2021/05/17 04:35:08;;;;;;;2.20;1.20;;;24.20;60.20;;;;;;5073581;28;20490;-89
2021/05/17 04:37:35;;;;;;;1.93;0.90;;;24.20;60.20;;;;;;5073905;28;20531;-89
2021/05/17 04:40:03;;;;;;;1.00;0.80;;;24.20;60.30;;;;;;5073544;28;20957;-89
2021/05/17 04:42:29;;;;;;;1.00;0.80;;;24.20;60.30;;;;;;5073416;28;20437;-89
2021/05/17 04:44:55;;;;;;;1.00;0.80;;;24.20;60.30;;;;;;5073496;28;20478;-89
2021/05/17 04:47:21;;;;;;;0.97;0.70;;;24.20;60.30;;;;;;5073328;28;20448;-89
2021/05/17 04:49:48;;;;;;;1.20;1.00;;;24.20;60.30;;;;;;5073506;28;20441;-89
2021/05/17 04:52:17;;;;;;;1.03;0.83;;;24.20;60.20;;;;;;5073535;28;20524;-89
2021/05/17 04:54:45;;;;;;;1.20;0.80;;;24.20;60.00;;;;;;5073481;28;20448;-89
2021/05/17 04:57:11;;;;;;;1.00;0.80;;;24.30;60.30;;;;;;5073122;28;20949;-89
2021/05/17 04:59:37;;;;;;;1.00;0.70;;;24.20;60.00;;;;;;5073832;28;20460;-89
2021/05/17 05:02:05;;;;;;;1.00;0.70;;;24.20;60.30;;;;;;5073353;28;20952;-89
2021/05/17 05:04:31;;;;;;;1.00;0.80;;;24.20;60.40;;;;;;5073209;28;21000;-89
2021/05/17 05:06:58;;;;;;;1.00;0.80;;;24.20;60.40;;;;;;5073416;28;20437;-89
2021/05/17 05:09:24;;;;;;;1.30;0.90;;;24.20;60.50;;;;;;5073750;28;21001;-89
2021/05/17 05:11:51;;;;;;;1.00;0.70;;;24.20;60.50;;;;;;5077256;28;20439;-89
2021/05/17 05:14:18;;;;;;;1.50;0.90;;;24.20;60.50;;;;;;5077233;28;20444;-89
2021/05/17 05:16:44;;;;;;;1.10;0.90;;;24.20;60.60;;;;;;5077266;28;20441;-89
2021/05/17 05:19:11;;;;;;;1.00;0.73;;;24.20;60.50;;;;;;5077883;28;20441;-89
2021/05/17 05:21:37;;;;;;;1.30;0.80;;;24.20;60.60;;;;;;5077078;28;20547;-90
2021/05/17 05:24:04;;;;;;;1.20;0.70;;;24.20;60.40;;;;;;5076858;28;20472;-90
2021/05/17 05:26:50;;;;;;;1.10;0.80;;;24.20;60.40;;;;;;5077674;28;21054;-90
2021/05/17 05:29:25;;;;;;;1.00;0.70;;;24.20;60.50;;;;;;5077315;28;20536;-89
2021/05/17 05:31:55;;;;;;;1.23;0.83;;;24.20;60.60;;;;;;5077069;28;20445;-89
2021/05/17 05:34:23;;;;;;;1.00;0.70;;;24.20;60.70;;;;;;5076961;28;20434;-89
2021/05/17 05:36:49;;;;;;;1.10;0.80;;;24.20;60.90;;;;;;5077442;28;20438;-89
2021/05/17 05:39:16;;;;;;;1.43;0.80;;;24.20;60.90;;;;;;5077480;28;20551;-89
2021/05/17 05:41:43;;;;;;;2.47;0.83;;;24.20;61.90;;;;;;5076807;28;20957;-89
2021/05/17 05:44:09;;;;;;;0.90;0.60;;;24.20;61.20;;;;;;5076592;28;20506;-86
2021/05/17 05:46:36;;;;;;;1.00;0.70;;;24.20;61.10;;;;;;5076579;28;20451;-88
2021/05/17 05:49:03;;;;;;;1.20;0.97;;;24.20;60.90;;;;;;5076606;28;20438;-88
2021/05/17 05:51:30;;;;;;;0.93;0.70;;;24.20;60.70;;;;;;5076636;28;20460;-88
2021/05/17 05:53:57;;;;;;;1.87;0.90;;;24.20;60.90;;;;;;5076297;28;20555;-85
2021/05/17 05:56:24;;;;;;;1.57;0.80;;;24.20;60.90;;;;;;5076596;28;20455;-87
2021/05/17 05:58:51;;;;;;;1.63;0.70;;;24.10;60.70;;;;;;5076449;28;20446;-88
2021/05/17 06:01:18;;;;;;;1.00;0.70;;;24.20;60.90;;;;;;5076037;28;20453;-88
2021/05/17 06:03:45;;;;;;;1.20;0.80;;;24.20;60.90;;;;;;5076380;28;20446;-86
2021/05/17 06:06:13;;;;;;;1.73;0.83;;;24.20;60.90;;;;;;5078069;28;20511;-89
2021/05/17 06:08:42;;;;;;;1.97;0.80;;;24.30;61.20;;;;;;5075970;28;20462;-89
2021/05/17 06:11:11;;;;;;;1.77;0.97;;;24.30;61.10;;;;;;5076047;28;20446;-89
2021/05/17 06:13:38;;;;;;;1.00;0.73;;;24.30;60.90;;;;;;5076229;28;20443;-89
2021/05/17 06:16:06;;;;;;;1.10;0.97;;;24.30;61.10;;;;;;5076214;28;20528;-90
2021/05/17 06:18:33;;;;;;;1.27;0.90;;;24.30;61.20;;;;;;5075922;28;20437;-93
2021/05/17 06:21:01;;;;;;;1.10;0.90;;;24.30;61.00;;;;;;5075906;28;20457;-91
2021/05/17 06:23:27;;;;;;;1.23;0.80;;;24.30;61.10;;;;;;5077118;28;20517;-90
2021/05/17 06:25:54;;;;;;;1.00;0.70;;;24.30;61.10;;;;;;5076238;28;20493;-89
2021/05/17 06:28:22;;;;;;;1.00;0.80;;;24.30;61.20;;;;;;5075541;28;20449;-89
2021/05/17 06:30:51;;;;;;;1.10;0.90;;;24.30;61.30;;;;;;5075576;28;20442;-89
2021/05/17 06:33:19;;;;;;;1.10;0.70;;;24.30;61.10;;;;;;5075693;28;20449;-86
2021/05/17 06:35:46;;;;;;;2.70;1.63;;;24.30;61.20;;;;;;5075592;28;20777;-87
2021/05/17 06:38:14;;;;;;;1.20;1.07;;;24.30;61.30;;;;;;5075371;28;20983;-87
2021/05/17 06:40:41;;;;;;;1.33;1.10;;;24.20;61.40;;;;;;5075764;28;20441;-89
2021/05/17 06:43:07;;;;;;;1.10;0.80;;;24.20;61.30;;;;;;5075223;28;20925;-88
2021/05/17 06:45:35;;;;;;;1.70;0.87;;;24.20;61.10;;;;;;5075282;28;20505;-85
2021/05/17 06:48:02;;;;;;;1.30;0.80;;;24.20;61.10;;;;;;5075031;28;20448;-87
2021/05/17 06:50:29;;;;;;;1.80;0.90;;;24.20;61.10;;;;;;5067595;28;20461;-88
2021/05/17 06:52:56;;;;;;;1.70;0.93;;;24.20;61.10;;;;;;5072368;28;20446;-89
2021/05/17 06:55:29;;;;;;;1.40;0.90;;;24.20;60.80;;;;;;5064946;28;20448;-91
2021/05/17 06:58:08;;;;;;;1.00;0.80;;;24.20;60.80;;;;;;5054897;28;20445;-89
2021/05/17 07:00:35;;;;;;;1.80;1.00;;;24.20;60.50;;;;;;5070080;28;20434;-89
2021/05/17 07:03:05;;;;;;;1.93;0.90;;;24.20;60.50;;;;;;5074773;28;20445;-89
2021/05/17 07:05:32;;;;;;;1.10;0.77;;;24.30;60.50;;;;;;5066967;28;20622;-88
2021/05/17 07:13:47;;;;;;;1.37;0.90;;;24.30;61.30;;;;;;5055381;28;20425;-87
2021/05/17 07:16:14;;;;;;;1.00;0.70;;;24.30;61.00;;;;;;5055339;28;20471;-88
2021/05/17 07:18:40;;;;;;;1.10;0.90;;;24.30;60.70;;;;;;5054615;28;20442;-89
2021/05/17 07:23:51;;;;;;;2.07;0.80;;;24.30;60.70;;;;;;5054173;28;20821;-90
2021/05/17 07:26:19;;;;;;;3.83;0.70;;;24.30;61.50;;;;;;5055000;28;20488;-89
2021/05/17 07:28:49;;;;;;;1.10;0.90;;;24.30;61.20;;;;;;5056116;28;20473;-92
2021/05/17 07:31:15;;;;;;;2.27;1.07;;;24.40;61.30;;;;;;5055974;28;20867;-91
2021/05/17 07:33:42;;;;;;;1.67;1.17;;;24.40;62.10;;;;;;5055628;28;20482;-89
2021/05/17 07:36:08;;;;;;;2.47;1.23;;;24.40;60.90;;;;;;5055972;28;20520;-90
2021/05/17 07:38:35;;;;;;;1.30;0.90;;;24.30;60.70;;;;;;5055552;28;20466;-89
2021/05/17 07:41:02;;;;;;;2.33;1.10;;;24.40;60.90;;;;;;5055547;28;20450;-90
2021/05/17 07:43:30;;;;;;;1.47;1.10;;;24.40;60.90;;;;;;5055807;28;20536;-89
2021/05/17 07:45:57;;;;;;;2.07;1.27;;;24.40;60.80;;;;;;5055104;28;20488;-89
2021/05/17 07:48:23;;;;;;;3.30;1.80;;;24.40;60.80;;;;;;5055108;28;20457;-89
2021/05/17 07:50:50;;;;;;;1.80;1.23;;;24.40;60.80;;;;;;5054767;28;20451;-93
2021/05/17 07:53:17;;;;;;;1.77;1.20;;;24.40;60.90;;;;;;5054946;28;20441;-92
2021/05/17 07:55:44;;;;;;;2.13;1.30;;;24.40;60.80;;;;;;5055397;28;20448;-89
2021/05/17 07:58:10;;;;;;;3.43;1.90;;;24.40;60.90;;;;;;5055458;28;20480;-91
2021/05/17 08:00:38;;;;;;;1.70;1.17;;;24.40;60.90;;;;;;5055932;28;20461;-89
2021/05/17 08:03:04;;;;;;;6.23;1.80;;;24.40;60.90;;;;;;5054882;28;20453;-90
2021/05/17 08:05:32;;;;;;;1.30;1.20;;;24.40;60.80;;;;;;5053713;28;20490;-86
2021/05/17 08:07:59;;;;;;;1.30;1.13;;;24.40;60.80;;;;;;5054024;28;20447;-89
2021/05/17 08:10:26;;;;;;;1.37;1.10;;;24.40;60.80;;;;;;5053874;28;20489;-89
2021/05/17 08:12:52;;;;;;;2.27;1.17;;;24.40;60.80;;;;;;5053650;28;20442;-89
2021/05/17 08:15:20;;;;;;;3.33;1.20;;;24.40;61.00;;;;;;5053984;28;20443;-91
2021/05/17 08:17:47;;;;;;;1.53;1.37;;;24.40;61.00;;;;;;5053431;28;20968;-92
2021/05/17 08:20:14;;;;;;;4.60;1.80;;;24.40;61.10;;;;;;5053809;28;20540;-89
2021/05/17 08:22:40;;;;;;;1.93;1.10;;;24.40;60.90;;;;;;5053634;28;20508;-90
2021/05/17 08:25:08;;;;;;;4.33;1.47;;;24.40;60.80;;;;;;5053200;28;20593;-90
2021/05/17 08:27:34;;;;;;;2.90;1.13;;;24.40;60.80;;;;;;5053717;28;20775;-89
2021/05/17 08:30:01;;;;;;;2.83;1.33;;;24.40;61.20;;;;;;5053776;28;20430;-89
2021/05/17 08:32:27;;;;;;;2.87;1.20;;;24.50;61.30;;;;;;5053471;28;20484;-90
2021/05/17 08:34:54;;;;;;;1.60;1.30;;;24.40;61.80;;;;;;5053751;28;20449;-91
2021/05/17 08:37:20;;;;;;;2.60;1.50;;;24.30;60.70;;;;;;5053535;28;20447;-89
2021/05/17 08:39:47;;;;;;;6.00;1.53;;;24.40;60.90;;;;;;5053060;28;20462;-89
2021/05/17 08:42:13;;;;;;;5.10;2.10;;;24.40;60.90;;;;;;5053600;28;20511;-90
2021/05/17 08:44:40;;;;;;;4.20;1.63;;;24.40;60.90;;;;;;5052663;28;20475;-90
2021/05/17 08:47:06;;;;;;;2.87;1.30;;;24.40;60.90;;;;;;5053247;28;20443;-90
2021/05/17 08:49:32;;;;;;;1.57;1.30;;;24.40;61.00;;;;;;5053522;28;20783;-90
2021/05/17 08:52:00;;;;;;;1.97;1.30;;;24.40;61.80;;;;;;5053371;28;20503;-89
2021/05/17 08:54:26;;;;;;;4.40;1.80;;;24.40;61.00;;;;;;5053121;28;20446;-90
2021/05/17 08:56:52;;;;;;;4.60;1.77;;;24.50;61.20;;;;;;5053577;28;20541;-90
2021/05/17 08:59:20;;;;;;;2.13;1.40;;;24.50;61.20;;;;;;5053429;28;20441;-90
2021/05/17 09:01:47;;;;;;;3.60;1.27;;;24.50;61.20;;;;;;5053474;28;20451;-90
2021/05/17 09:04:16;;;;;;;1.87;1.60;;;24.50;61.20;;;;;;5053087;28;20496;-89
2021/05/17 09:06:45;;;;;;;3.83;1.53;;;24.50;61.30;;;;;;5053188;28;20516;-90
2021/05/17 09:09:30;;;;;;;3.53;1.40;;;24.50;61.20;;;;;;5052986;28;20510;-90
2021/05/17 09:11:58;;;;;;;3.63;1.10;;;24.60;61.50;;;;;;5052065;28;20864;-90
2021/05/17 09:14:26;;;;;;;1.50;1.33;;;24.60;61.50;;;;;;5053289;28;20454;-91
2021/05/17 09:16:56;;;;;;;1.60;1.50;;;24.60;61.40;;;;;;5053016;28;20934;-89
2021/05/17 09:19:24;;;;;;;1.47;1.30;;;24.70;61.60;;;;;;5052999;28;21018;-89
2021/05/17 09:22:14;;;;;;;4.37;1.30;;;24.70;61.50;;;;;;5053033;28;20981;-90
2021/05/17 09:24:49;;;;;;;2.60;1.33;;;24.70;61.30;;;;;;5033270;28;20510;-90
2021/05/17 09:27:19;;;;;;;2.27;1.30;;;24.70;61.30;;;;;;5052717;28;20439;-90
2021/05/17 09:29:47;;;;;;;3.93;1.30;;;24.70;61.30;;;;;;5052888;28;20442;-90
2021/05/17 09:32:25;;;;;;;5.03;1.20;;;24.70;61.40;;;;;;5053015;28;20460;-91
2021/05/17 09:35:00;;;;;;;1.60;1.20;;;24.80;61.40;;;;;;5053201;28;20426;-92
2021/05/17 09:37:28;;;;;;;1.63;1.00;;;24.70;61.30;;;;;;5053266;28;20438;-91
2021/05/17 09:39:55;;;;;;;2.07;1.20;;;24.70;61.30;;;;;;5053186;28;20463;-89
2021/05/17 09:42:23;;;;;;;2.80;1.03;;;24.70;61.10;;;;;;5053245;28;20451;-92
2021/05/17 09:44:50;;;;;;;2.80;1.00;;;24.80;61.30;;;;;;5054108;28;20448;-90
2021/05/17 09:47:20;;;;;;;1.53;1.13;;;24.70;61.00;;;;;;5052855;28;20447;-90
2021/05/17 09:49:49;;;;;;;2.20;1.07;;;24.70;61.00;;;;;;5055162;28;20862;-92
2021/05/17 09:52:18;;;;;;;1.80;1.63;;;24.70;61.10;;;;;;5053958;28;20453;-92
2021/05/17 09:54:54;;;;;;;1.63;1.03;;;24.70;61.00;;;;;;5054020;28;20447;-88
2021/05/17 09:57:23;;;;;;;1.70;1.10;;;24.70;61.00;;;;;;5055409;28;20438;-86
2021/05/17 09:59:51;;;;;;;3.50;1.43;;;24.70;61.00;;;;;;5057688;28;20454;-86
2021/05/17 10:02:31;;;;;;;1.07;0.93;;;24.70;61.10;;;;;;5058089;28;20443;-86
2021/05/17 10:05:08;;;;;;;2.87;1.20;;;24.70;61.10;;;;;;5056475;28;21345;-87
2021/05/17 10:07:34;;;;;;;1.70;0.93;;;24.70;61.60;;;;;;5056376;28;20816;-90
2021/05/17 10:10:01;;;;;;;2.60;1.23;;;24.70;61.30;;;;;;5056346;28;20461;-85
2021/05/17 10:12:29;;;;;;;1.73;1.03;;;24.80;61.70;;;;;;5056373;28;20438;-87
2021/05/17 10:14:55;;;;;;;4.53;1.10;;;24.70;61.90;;;;;;5056444;28;20450;-91
2021/05/17 10:17:22;;;;;;;1.30;1.00;;;24.70;61.70;;;;;;5058921;28;20456;-88
2021/05/17 10:19:48;;;;;;;3.70;1.10;;;24.70;61.70;;;;;;5056496;28;20451;-89
2021/05/17 10:22:15;;;;;;;4.37;1.00;;;24.70;62.30;;;;;;5056060;28;20537;-88
2021/05/17 10:24:42;;;;;;;2.13;1.20;;;24.70;63.00;;;;;;5055419;28;20966;-90
2021/05/17 10:27:09;;;;;;;1.10;0.80;;;24.70;63.80;;;;;;5055920;28;20581;-88
2021/05/17 10:29:39;;;;;;;3.43;1.20;;;24.70;63.60;;;;;;5055802;28;20479;-87
2021/05/17 10:32:08;;;;;;;1.90;0.87;;;24.90;65.00;;;;;;5058817;28;20538;-95
2021/05/17 10:34:47;;;;;;;2.27;1.10;;;24.70;63.40;;;;;;5056096;28;20538;-90
2021/05/17 10:37:19;;;;;;;2.13;0.90;;;24.70;63.20;;;;;;5055979;28;20447;-87
2021/05/17 10:39:52;;;;;;;2.40;1.30;;;24.80;63.90;;;;;;5055797;28;20476;-88
2021/05/17 10:42:24;;;;;;;1.70;1.03;;;24.90;63.90;;;;;;5055650;28;20534;-87
2021/05/17 10:48:23;;;;;;;1.20;0.80;;;24.80;63.30;;;;;;5056334;28;20419;-96
2021/05/17 10:50:52;;;;;;;1.23;0.90;;;24.80;63.40;;;;;;5056811;28;20443;-92
2021/05/17 10:53:50;;;;;;;3.57;1.37;;;24.70;63.30;;;;;;5056039;28;20473;-89
2021/05/17 10:56:18;;;;;;;1.83;0.97;;;24.70;63.10;;;;;;5054832;28;20542;-87
2021/05/17 11:01:50;;;;;;;1.90;1.33;;;24.70;62.40;;;;;;5054973;28;20479;-87
2021/05/17 11:04:32;;;;;;;2.03;1.13;;;24.70;62.40;;;;;;5055231;28;20476;-87
2021/05/17 11:07:24;;;;;;;4.03;0.90;;;24.80;62.50;;;;;;5058754;28;20975;-92
2021/05/17 11:10:11;;;;;;;3.00;1.40;;;24.80;62.40;;;;;;5080005;28;20947;-93
2021/05/17 11:12:55;;;;;;;1.70;1.00;;;24.90;62.70;;;;;;5059562;28;20430;-94
2021/05/17 11:15:23;;;;;;;2.73;1.10;;;24.90;62.80;;;;;;5058956;28;20962;-94
2021/05/17 11:18:01;;;;;;;1.87;1.50;;;24.90;63.60;;;;;;5059184;28;20438;-95
2021/05/17 11:20:55;;;;;;;25.77;11.40;;;24.90;64.70;;;;;;5059428;28;20516;-92
2021/05/17 11:23:47;;;;;;;15.57;6.40;;;25.00;65.50;;;;;;5024084;28;20455;-93
2021/05/17 11:26:16;;;;;;;18.20;7.10;;;25.00;66.10;;;;;;5068968;28;20482;-93
2021/05/17 11:29:04;;;;;;;17.60;7.10;;;24.90;66.60;;;;;;5077793;28;20830;-90
2021/05/17 11:31:36;;;;;;;12.20;6.80;;;24.90;66.70;;;;;;5076706;28;20451;-88
2021/05/17 11:34:13;;;;;;;9.80;5.00;;;24.90;67.10;;;;;;5077345;28;20472;-94
2021/05/17 11:36:42;;;;;;;16.97;6.37;;;24.90;67.50;;;;;;5077003;28;20524;-91
2021/05/17 11:39:16;;;;;;;11.50;5.83;;;24.90;67.70;;;;;;5076851;28;20479;-90
2021/05/17 11:41:45;;;;;;;14.50;5.20;;;25.00;67.80;;;;;;5076435;28;20490;-88
2021/05/17 11:44:14;;;;;;;18.07;6.30;;;25.00;67.90;;;;;;5077208;28;21008;-93
2021/05/17 11:46:42;;;;;;;10.33;3.90;;;25.00;67.90;;;;;;5082549;28;20484;-83
2021/05/17 11:49:20;;;;;;;11.67;4.60;;;25.00;67.60;;;;;;5080036;28;20475;-91
2021/05/17 11:51:48;;;;;;;12.03;4.20;;;25.00;66.10;;;;;;5076567;28;20455;-91
2021/05/17 11:54:14;;;;;;;9.60;4.07;;;25.00;67.50;;;;;;5076604;28;20465;-88
2021/05/17 11:56:43;;;;;;;9.27;4.50;;;25.00;67.50;;;;;;5075036;28;20447;-87
2021/05/17 11:59:15;;;;;;;6.67;3.33;;;25.00;67.50;;;;;;5075105;28;20948;-87
2021/05/17 12:01:43;;;;;;;11.13;4.00;;;25.00;67.00;;;;;;5076928;28;20440;-87
2021/05/17 12:04:19;;;;;;;14.73;4.57;;;25.10;68.10;;;;;;5076218;28;20450;-87
2021/05/17 12:06:47;;;;;;;10.03;3.40;;;25.10;67.10;;;;;;5076872;28;20576;-85
2021/05/17 12:09:26;;;;;;;6.10;3.17;;;25.10;67.10;;;;;;5078270;28;20562;-87
2021/05/17 12:11:53;;;;;;;6.13;3.13;;;25.20;67.10;;;;;;5077411;28;20441;-88
2021/05/17 12:14:19;;;;;;;12.10;4.07;;;25.10;67.00;;;;;;5077611;28;20451;-87
2021/05/17 12:16:45;;;;;;;8.60;3.80;;;25.20;66.90;;;;;;5077228;28;20865;-88
2021/05/17 12:19:16;;;;;;;7.87;3.57;;;25.20;66.70;;;;;;5076256;28;20520;-87
2021/05/17 12:21:43;;;;;;;9.57;3.90;;;25.20;66.60;;;;;;5076685;28;20436;-88
2021/05/17 12:24:24;;;;;;;8.10;3.10;;;25.20;66.40;;;;;;5074861;28;20865;-85
2021/05/17 12:26:55;;;;;;;4.50;2.57;;;25.20;65.50;;;;;;5074590;28;20483;-90
2021/05/17 12:29:22;;;;;;;4.20;2.37;;;25.20;64.90;;;;;;5074337;28;20460;-86
2021/05/17 12:31:48;;;;;;;4.40;2.20;;;25.20;64.90;;;;;;5073632;28;20494;-85
2021/05/17 12:34:16;;;;;;;6.60;1.90;;;25.10;64.60;;;;;;5073735;28;20477;-83
2021/05/17 12:36:44;;;;;;;4.07;2.00;;;25.10;64.30;;;;;;5073501;28;20470;-90
2021/05/17 12:39:16;;;;;;;4.23;2.20;;;25.10;64.20;;;;;;5073717;28;20871;-89
2021/05/17 12:41:43;;;;;;;6.07;2.93;;;25.00;64.40;;;;;;5073438;28;20466;-88
2021/05/17 12:44:29;;;;;;;6.57;2.03;;;25.00;64.60;;;;;;5073921;28;20458;-93
2021/05/17 12:47:07;;;;;;;7.73;2.00;;;25.00;65.20;;;;;;5073195;28;20481;-91
2021/05/17 12:49:45;;;;;;;4.70;2.00;;;25.00;65.60;;;;;;5078749;28;20573;-85
2021/05/17 12:52:11;;;;;;;4.67;2.20;;;25.00;64.70;;;;;;5073868;28;20490;-86
2021/05/17 12:54:38;;;;;;;8.23;2.30;;;25.00;64.40;;;;;;5076698;28;20437;-86
2021/05/17 12:57:11;;;;;;;10.93;2.00;;;25.10;65.00;;;;;;5086475;28;20457;-88
2021/05/17 12:59:46;;;;;;;5.20;1.77;;;25.00;64.90;;;;;;5080757;28;20465;-84
2021/05/17 13:02:13;;;;;;;4.33;1.77;;;25.00;64.40;;;;;;5085778;28;20449;-89
2021/05/17 13:04:40;;;;;;;5.77;2.10;;;25.00;64.30;;;;;;5077105;28;20442;-88
2021/05/17 13:07:07;;;;;;;6.53;2.10;;;25.00;64.40;;;;;;5072670;28;20861;-90
2021/05/17 13:09:34;;;;;;;5.30;1.70;;;25.00;64.50;;;;;;5072690;28;20458;-88
2021/05/17 13:12:02;;;;;;;3.13;1.77;;;25.10;64.70;;;;;;5073066;28;20442;-89
2021/05/17 13:14:28;;;;;;;5.33;1.90;;;25.00;64.70;;;;;;5072997;28;20930;-89
2021/05/17 13:17:00;;;;;;;5.17;1.90;;;25.00;64.70;;;;;;5073045;28;20450;-89